Time;durP1;ratioP1;P1;durP2;ratioP2;P2;SDS_P1;SDS_P2;PMS_P1;PMS_P2;Temp;Humidity;BMP_temperature;BMP_pressure;BME280_temperature;BME280_humidity;BME280_pressure;Samples;Min_cycle;Max_cycle;Signal;HPM_P1;HPM_P2
2023/08/06 00:01:40;;;;;;;1.07;1.07;;;;;;;;;;6235375;28;20194;-64
2023/08/06 00:04:41;;;;;;;1.43;1.07;;;;;;;;;;6245506;28;20213;-64
2023/08/06 00:07:42;;;;;;;1.00;0.97;;;;;;;;;;6237031;28;20194;-64
2023/08/06 00:10:43;;;;;;;1.53;1.40;;;;;;;;;;6244527;28;20193;-65
2023/08/06 00:13:44;;;;;;;3.37;1.50;;;;;;;;;;6246276;28;20191;-64
2023/08/06 00:16:45;;;;;;;1.73;1.20;;;;;;;;;;6256551;28;20198;-64
2023/08/06 00:19:46;;;;;;;2.70;1.20;;;;;;;;;;6257026;28;20183;-64
2023/08/06 00:22:47;;;;;;;1.43;1.20;;;;;;;;;;6261082;28;20238;-64
2023/08/06 00:25:48;;;;;;;1.67;1.30;;;;;;;;;;6261971;28;20186;-64
2023/08/06 00:28:49;;;;;;;1.80;1.37;;;;;;;;;;6245450;28;20198;-64
2023/08/06 00:31:50;;;;;;;4.80;1.50;;;;;;;;;;6252773;28;20195;-64
2023/08/06 00:34:51;;;;;;;2.30;1.27;;;;;;;;;;6262749;28;20196;-64
2023/08/06 00:37:52;;;;;;;2.87;2.00;;;;;;;;;;6261094;28;20199;-64
2023/08/06 00:40:53;;;;;;;2.03;1.33;;;;;;;;;;6242321;28;20215;-64
2023/08/06 00:43:54;;;;;;;1.67;1.27;;;;;;;;;;6265627;28;20222;-64
2023/08/06 00:46:56;;;;;;;2.47;1.60;;;;;;;;;;6278180;28;20186;-64
2023/08/06 00:49:57;;;;;;;3.40;1.97;;;;;;;;;;6254200;28;20260;-65
2023/08/06 00:52:58;;;;;;;2.27;2.07;;;;;;;;;;6258017;28;20200;-64
2023/08/06 00:56:00;;;;;;;4.20;1.80;;;;;;;;;;6261044;28;20191;-64
2023/08/06 00:59:01;;;;;;;2.13;1.40;;;;;;;;;;6256377;28;20182;-64
2023/08/06 01:02:02;;;;;;;3.10;1.80;;;;;;;;;;6256072;28;20198;-65
2023/08/06 01:05:03;;;;;;;1.70;1.17;;;;;;;;;;6268169;28;20293;-65
2023/08/06 01:08:14;;;;;;;1.83;1.47;;;;;;;;;;6257141;28;20288;-64
2023/08/06 01:11:33;;;;;;;1.53;1.43;;;;;;;;;;6259335;28;20192;-64
2023/08/06 01:15:10;;;;;;;2.43;1.30;;;;;;;;;;6261083;28;20222;-64
2023/08/06 01:18:11;;;;;;;2.37;1.20;;;;;;;;;;6269998;28;20186;-65
2023/08/06 01:21:16;;;;;;;3.70;1.77;;;;;;;;;;6250577;28;20231;-64
2023/08/06 01:24:17;;;;;;;3.93;1.60;;;;;;;;;;6277376;28;20225;-64
2023/08/06 01:27:23;;;;;;;3.30;1.70;;;;;;;;;;6249498;28;20222;-64
2023/08/06 01:30:29;;;;;;;3.00;1.73;;;;;;;;;;6264957;28;20222;-64
2023/08/06 01:33:32;;;;;;;3.90;1.50;;;;;;;;;;6251544;28;20199;-64
2023/08/06 01:36:34;;;;;;;5.50;1.80;;;;;;;;;;6262982;28;20198;-64
2023/08/06 01:39:35;;;;;;;1.80;1.70;;;;;;;;;;6245439;28;20201;-64
2023/08/06 01:42:36;;;;;;;4.20;1.40;;;;;;;;;;6249466;28;20279;-65
2023/08/06 01:45:37;;;;;;;1.37;1.20;;;;;;;;;;6240982;28;20300;-65
2023/08/06 01:48:38;;;;;;;1.63;1.33;;;;;;;;;;6283568;28;20204;-65
2023/08/06 01:51:39;;;;;;;3.87;1.57;;;;;;;;;;6259669;28;20190;-64
2023/08/06 01:54:40;;;;;;;5.40;1.50;;;;;;;;;;6256364;28;20220;-64
2023/08/06 01:57:41;;;;;;;2.47;1.27;;;;;;;;;;6246842;28;20209;-64
2023/08/06 02:00:42;;;;;;;3.60;1.60;;;;;;;;;;6247222;28;20200;-64
2023/08/06 02:03:43;;;;;;;3.40;1.50;;;;;;;;;;6260477;28;20310;-64
2023/08/06 02:06:44;;;;;;;1.30;1.20;;;;;;;;;;6235841;28;20190;-64
2023/08/06 02:09:45;;;;;;;1.87;1.40;;;;;;;;;;6247641;28;20197;-64
2023/08/06 02:12:46;;;;;;;5.67;1.80;;;;;;;;;;6254651;28;20194;-64
2023/08/06 02:15:47;;;;;;;2.77;1.50;;;;;;;;;;6253152;28;20202;-64
2023/08/06 02:18:48;;;;;;;2.50;1.20;;;;;;;;;;6260567;28;20193;-64
2023/08/06 02:21:49;;;;;;;1.40;1.13;;;;;;;;;;6256974;28;20343;-64
2023/08/06 02:24:50;;;;;;;2.17;1.17;;;;;;;;;;6247766;28;20212;-64
2023/08/06 02:27:51;;;;;;;1.30;1.20;;;;;;;;;;6247828;28;20191;-64
2023/08/06 02:30:53;;;;;;;5.07;1.30;;;;;;;;;;6257581;28;20197;-64
2023/08/06 02:33:54;;;;;;;2.97;1.20;;;;;;;;;;6268213;28;20230;-65
2023/08/06 02:36:55;;;;;;;2.23;1.10;;;;;;;;;;6261622;28;20221;-64
2023/08/06 02:39:56;;;;;;;2.17;1.43;;;;;;;;;;6249686;28;20205;-64
2023/08/06 02:43:00;;;;;;;2.90;1.30;;;;;;;;;;6248319;28;20199;-64
2023/08/06 02:46:01;;;;;;;2.03;1.30;;;;;;;;;;6254239;28;20187;-64
2023/08/06 02:49:02;;;;;;;2.97;1.40;;;;;;;;;;6260209;28;20388;-64
2023/08/06 02:52:03;;;;;;;2.80;1.40;;;;;;;;;;6255330;28;20241;-64
2023/08/06 02:55:05;;;;;;;3.53;1.20;;;;;;;;;;6263836;28;20218;-64
2023/08/06 02:58:06;;;;;;;3.53;1.70;;;;;;;;;;6246781;28;20248;-64
2023/08/06 03:01:07;;;;;;;3.53;1.60;;;;;;;;;;6243207;28;20198;-65
2023/08/06 03:04:08;;;;;;;3.67;1.63;;;;;;;;;;6276350;28;20217;-64
2023/08/06 03:07:09;;;;;;;2.90;1.30;;;;;;;;;;6249987;28;20213;-64
2023/08/06 03:10:10;;;;;;;1.50;1.10;;;;;;;;;;6256257;28;20189;-65
2023/08/06 03:13:11;;;;;;;2.17;1.20;;;;;;;;;;6262984;28;20244;-64
2023/08/06 03:16:12;;;;;;;1.83;1.40;;;;;;;;;;6248410;28;20191;-64
2023/08/06 03:19:13;;;;;;;5.47;1.30;;;;;;;;;;6248691;28;20194;-64
2023/08/06 03:22:14;;;;;;;2.97;1.33;;;;;;;;;;6256877;28;20243;-64
2023/08/06 03:25:15;;;;;;;4.80;1.40;;;;;;;;;;6264136;28;20225;-64
2023/08/06 03:28:16;;;;;;;2.13;1.50;;;;;;;;;;6252026;28;20281;-64
2023/08/06 03:31:17;;;;;;;3.37;1.37;;;;;;;;;;6249500;28;20183;-64
2023/08/06 03:34:18;;;;;;;2.23;1.80;;;;;;;;;;6263172;28;20204;-64
2023/08/06 03:37:19;;;;;;;2.63;1.90;;;;;;;;;;6250330;28;20190;-64
2023/08/06 03:40:20;;;;;;;2.07;1.80;;;;;;;;;;6234458;28;20202;-64
2023/08/06 03:43:22;;;;;;;2.60;2.07;;;;;;;;;;6247571;28;20240;-64
2023/08/06 03:46:23;;;;;;;2.20;2.00;;;;;;;;;;6245750;28;20278;-64
2023/08/06 03:49:24;;;;;;;4.40;2.23;;;;;;;;;;6255412;28;20189;-64
2023/08/06 03:52:25;;;;;;;2.60;1.60;;;;;;;;;;6248300;28;20216;-64
2023/08/06 03:55:26;;;;;;;2.50;1.70;;;;;;;;;;6252815;28;20193;-64
2023/08/06 03:58:27;;;;;;;2.93;1.90;;;;;;;;;;6249927;28;20199;-64
2023/08/06 04:01:28;;;;;;;1.90;1.77;;;;;;;;;;6259743;28;20199;-64
2023/08/06 04:04:29;;;;;;;4.00;1.97;;;;;;;;;;6252727;28;20222;-64
2023/08/06 04:07:30;;;;;;;2.40;1.80;;;;;;;;;;6256928;28;20274;-64
2023/08/06 04:10:31;;;;;;;2.40;2.20;;;;;;;;;;6272384;28;20201;-64
2023/08/06 04:13:32;;;;;;;1.80;1.70;;;;;;;;;;6260677;28;20194;-64
2023/08/06 04:16:33;;;;;;;2.60;1.80;;;;;;;;;;6255968;28;20285;-64
2023/08/06 04:19:34;;;;;;;3.20;1.90;;;;;;;;;;6247674;28;20197;-64
2023/08/06 04:22:35;;;;;;;2.10;1.70;;;;;;;;;;6248814;28;20268;-64
2023/08/06 04:25:36;;;;;;;3.73;2.40;;;;;;;;;;6260650;28;20249;-64
2023/08/06 04:28:37;;;;;;;4.03;3.20;;;;;;;;;;6266259;28;20179;-64
2023/08/06 04:31:38;;;;;;;2.50;2.30;;;;;;;;;;6249502;28;20268;-65
2023/08/06 04:34:39;;;;;;;3.57;2.60;;;;;;;;;;6251777;28;20193;-64
2023/08/06 04:37:40;;;;;;;4.13;2.10;;;;;;;;;;6256600;28;20255;-64
2023/08/06 04:40:42;;;;;;;5.30;2.20;;;;;;;;;;6266051;28;20201;-64
2023/08/06 04:43:43;;;;;;;2.57;2.03;;;;;;;;;;6235157;28;20241;-65
2023/08/06 04:46:44;;;;;;;2.43;1.80;;;;;;;;;;6245702;28;20190;-66
2023/08/06 04:49:45;;;;;;;5.47;2.50;;;;;;;;;;6240990;28;20198;-67
2023/08/06 04:52:46;;;;;;;2.93;2.27;;;;;;;;;;6251396;28;20196;-65
2023/08/06 04:55:48;;;;;;;4.27;2.13;;;;;;;;;;6256568;28;20281;-64
2023/08/06 04:58:49;;;;;;;3.73;1.80;;;;;;;;;;6259910;28;20191;-65
2023/08/06 05:01:50;;;;;;;3.53;2.13;;;;;;;;;;6259359;28;20194;-65
2023/08/06 05:04:51;;;;;;;5.83;2.03;;;;;;;;;;6258276;28;20218;-65
2023/08/06 05:07:52;;;;;;;2.07;1.80;;;;;;;;;;6241916;28;20190;-65
2023/08/06 05:10:53;;;;;;;4.93;2.30;;;;;;;;;;6254959;28;20218;-65
2023/08/06 05:13:54;;;;;;;2.73;2.00;;;;;;;;;;6261405;28;20217;-64
2023/08/06 05:16:55;;;;;;;1.70;1.60;;;;;;;;;;6251457;28;20190;-64
2023/08/06 05:19:56;;;;;;;2.37;2.17;;;;;;;;;;6264317;28;20210;-64
2023/08/06 05:22:57;;;;;;;2.27;2.07;;;;;;;;;;6250510;28;20233;-64
2023/08/06 05:25:58;;;;;;;2.13;1.93;;;;;;;;;;6243641;28;20213;-64
2023/08/06 05:29:00;;;;;;;2.37;2.00;;;;;;;;;;6254976;28;20191;-64
2023/08/06 05:32:01;;;;;;;2.60;2.40;;;;;;;;;;6277315;28;20194;-64
2023/08/06 05:35:02;;;;;;;4.30;2.20;;;;;;;;;;6257323;28;20223;-64
2023/08/06 05:38:03;;;;;;;3.03;2.20;;;;;;;;;;6260640;28;20199;-64
2023/08/06 05:41:04;;;;;;;2.87;2.20;;;;;;;;;;6248362;28;20194;-64
2023/08/06 05:44:05;;;;;;;3.87;2.20;;;;;;;;;;6252982;28;20294;-64
2023/08/06 05:47:06;;;;;;;3.93;2.00;;;;;;;;;;6262480;28;20285;-65
2023/08/06 05:50:08;;;;;;;3.70;2.13;;;;;;;;;;6256365;28;20250;-65
2023/08/06 05:53:10;;;;;;;5.63;3.07;;;;;;;;;;6268117;28;20183;-65
2023/08/06 05:56:11;;;;;;;2.37;2.17;;;;;;;;;;6247093;28;20208;-64
2023/08/06 05:59:12;;;;;;;4.07;3.77;;;;;;;;;;6249970;28;20190;-64
2023/08/06 06:02:13;;;;;;;4.83;2.97;;;;;;;;;;6255195;28;20186;-64
2023/08/06 06:05:14;;;;;;;4.90;3.17;;;;;;;;;;6244380;28;20207;-64
2023/08/06 06:08:15;;;;;;;5.10;3.23;;;;;;;;;;6234446;28;20191;-65
2023/08/06 06:11:16;;;;;;;4.07;3.13;;;;;;;;;;6254253;28;20205;-64
2023/08/06 06:14:17;;;;;;;3.80;3.40;;;;;;;;;;6249336;28;20218;-65
2023/08/06 06:17:18;;;;;;;3.97;3.60;;;;;;;;;;6259527;28;20190;-65
2023/08/06 06:20:19;;;;;;;3.93;3.60;;;;;;;;;;6251161;28;20280;-64
2023/08/06 06:23:20;;;;;;;6.00;3.07;;;;;;;;;;6249399;28;20337;-63
2023/08/06 06:26:21;;;;;;;5.67;3.93;;;;;;;;;;6251721;28;20195;-65
2023/08/06 06:29:22;;;;;;;5.47;4.97;;;;;;;;;;6254162;28;20186;-67
2023/08/06 06:32:23;;;;;;;5.70;4.80;;;;;;;;;;6259655;28;20197;-64
2023/08/06 06:35:25;;;;;;;5.43;4.93;;;;;;;;;;6249229;28;20210;-64
2023/08/06 06:38:26;;;;;;;6.23;5.50;;;;;;;;;;6268241;28;20197;-64
2023/08/06 06:41:29;;;;;;;6.13;5.53;;;;;;;;;;6259079;28;20205;-64
2023/08/06 06:44:30;;;;;;;5.77;5.13;;;;;;;;;;6250120;28;20276;-64
2023/08/06 06:47:31;;;;;;;5.73;5.13;;;;;;;;;;6250987;28;20217;-64
2023/08/06 06:50:32;;;;;;;6.53;5.53;;;;;;;;;;6257524;28;20215;-64
2023/08/06 06:53:33;;;;;;;6.97;6.35;;;;;;;;;;6251013;28;20717;-67
2023/08/06 06:56:34;;;;;;;5.93;5.43;;;;;;;;;;6262950;28;20186;-63
2023/08/06 06:59:35;;;;;;;7.20;6.37;;;;;;;;;;6257244;28;20261;-63
2023/08/06 07:02:37;;;;;;;6.73;5.83;;;;;;;;;;6261944;28;20201;-63
2023/08/06 07:05:38;;;;;;;6.87;6.17;;;;;;;;;;6246496;28;20214;-63
2023/08/06 07:08:39;;;;;;;10.03;7.97;;;;;;;;;;6255373;28;20243;-63
2023/08/06 07:11:41;;;;;;;8.37;7.50;;;;;;;;;;6256131;28;20194;-63
2023/08/06 07:14:42;;;;;;;11.53;10.30;;;;;;;;;;6261359;28;20198;-63
2023/08/06 07:17:44;;;;;;;13.23;9.90;;;;;;;;;;6257018;28;20206;-63
2023/08/06 07:20:48;;;;;;;9.40;8.50;;;;;;;;;;6247638;28;20282;-64
2023/08/06 07:23:49;;;;;;;10.97;8.33;;;;;;;;;;6266075;28;20230;-63
2023/08/06 07:26:52;;;;;;;8.57;7.77;;;;;;;;;;6253783;28;20271;-66
2023/08/06 07:29:53;;;;;;;9.10;7.83;;;;;;;;;;6255328;28;20194;-64
2023/08/06 07:32:54;;;;;;;6.53;6.00;;;;;;;;;;6255895;28;20185;-64
2023/08/06 07:35:55;;;;;;;6.23;5.63;;;;;;;;;;6250141;28;20198;-63
2023/08/06 07:38:56;;;;;;;4.73;4.33;;;;;;;;;;6267178;28;20572;-63
2023/08/06 07:41:57;;;;;;;4.33;3.93;;;;;;;;;;6244128;28;20190;-64
2023/08/06 07:44:59;;;;;;;5.50;3.77;;;;;;;;;;6255908;28;20233;-66
2023/08/06 07:48:00;;;;;;;3.97;3.47;;;;;;;;;;6254854;28;20222;-64
2023/08/06 07:51:01;;;;;;;4.47;3.70;;;;;;;;;;6250165;28;20195;-62
2023/08/06 07:54:03;;;;;;;5.00;4.53;;;;;;;;;;6250494;28;20758;-66
2023/08/06 07:57:04;;;;;;;4.07;3.67;;;;;;;;;;6264991;28;20186;-63
2023/08/06 08:00:05;;;;;;;5.50;3.70;;;;;;;;;;6250231;28;20186;-63
2023/08/06 08:03:06;;;;;;;4.00;3.30;;;;;;;;;;6267488;28;20193;-63
2023/08/06 08:06:07;;;;;;;3.57;3.27;;;;;;;;;;6256168;28;20284;-64
2023/08/06 08:09:08;;;;;;;3.03;2.83;;;;;;;;;;6252319;28;20190;-63
2023/08/06 08:12:09;;;;;;;3.40;3.10;;;;;;;;;;6259321;28;20186;-63
2023/08/06 08:15:10;;;;;;;3.63;3.33;;;;;;;;;;6254521;28;20193;-63
2023/08/06 08:18:11;;;;;;;3.97;3.13;;;;;;;;;;6257595;28;20198;-64
2023/08/06 08:21:12;;;;;;;3.70;3.10;;;;;;;;;;6249463;28;20264;-63
2023/08/06 08:24:13;;;;;;;4.57;3.47;;;;;;;;;;6252992;28;20212;-64
2023/08/06 08:27:14;;;;;;;3.80;3.10;;;;;;;;;;6241311;28;20260;-64
2023/08/06 08:30:15;;;;;;;3.67;3.37;;;;;;;;;;6246131;28;20187;-64
2023/08/06 08:33:16;;;;;;;4.20;3.80;;;;;;;;;;6267856;28;20197;-64
2023/08/06 08:36:17;;;;;;;5.30;3.63;;;;;;;;;;6269841;28;20190;-65
2023/08/06 08:39:19;;;;;;;3.77;3.47;;;;;;;;;;6266242;28;20212;-64
2023/08/06 08:42:20;;;;;;;4.30;3.93;;;;;;;;;;6243185;28;20187;-63
2023/08/06 08:45:22;;;;;;;4.40;4.00;;;;;;;;;;6249849;28;20210;-64
2023/08/06 08:48:24;;;;;;;4.00;3.70;;;;;;;;;;6260992;28;20186;-64
2023/08/06 08:51:26;;;;;;;4.93;4.43;;;;;;;;;;6249775;28;20192;-64
2023/08/06 08:54:27;;;;;;;4.70;4.30;;;;;;;;;;6267742;28;20194;-64
2023/08/06 08:57:28;;;;;;;3.70;3.40;;;;;;;;;;6271608;28;20193;-64
2023/08/06 09:00:29;;;;;;;3.83;2.93;;;;;;;;;;6265389;28;20186;-64
2023/08/06 09:03:31;;;;;;;3.20;3.00;;;;;;;;;;6242359;28;20207;-65
2023/08/06 09:06:34;;;;;;;2.83;2.47;;;;;;;;;;6265146;28;20186;-64
2023/08/06 09:09:38;;;;;;;3.57;2.60;;;;;;;;;;6267340;28;20191;-64
2023/08/06 09:12:40;;;;;;;2.50;2.30;;;;;;;;;;6258322;28;20195;-64
2023/08/06 09:15:41;;;;;;;2.20;2.00;;;;;;;;;;6265955;28;20220;-63
2023/08/06 09:18:42;;;;;;;2.43;2.20;;;;;;;;;;6253942;28;20248;-63
2023/08/06 09:21:44;;;;;;;2.10;1.67;;;;;;;;;;6259876;28;20288;-63
2023/08/06 09:24:45;;;;;;;3.13;2.03;;;;;;;;;;6270031;28;20286;-64
2023/08/06 09:27:47;;;;;;;2.30;2.10;;;;;;;;;;6265865;28;20194;-65
2023/08/06 09:30:48;;;;;;;2.10;1.90;;;;;;;;;;6265831;28;20193;-64
2023/08/06 09:33:49;;;;;;;2.23;2.03;;;;;;;;;;6263184;28;20288;-64
2023/08/06 09:36:51;;;;;;;4.10;2.07;;;;;;;;;;6243427;28;20201;-63
2023/08/06 09:39:53;;;;;;;2.60;2.40;;;;;;;;;;6247058;28;20202;-63
2023/08/06 09:42:55;;;;;;;3.90;1.97;;;;;;;;;;6265413;28;20194;-65
2023/08/06 09:45:56;;;;;;;2.30;2.10;;;;;;;;;;6270652;28;20237;-67
2023/08/06 09:48:57;;;;;;;2.20;1.93;;;;;;;;;;6242871;28;20190;-68
2023/08/06 09:51:59;;;;;;;2.80;2.60;;;;;;;;;;6255729;28;20201;-69
2023/08/06 09:55:01;;;;;;;2.60;2.40;;;;;;;;;;6245031;28;20195;-66
2023/08/06 09:58:02;;;;;;;2.33;2.10;;;;;;;;;;6259958;28;20253;-65
2023/08/06 10:01:04;;;;;;;2.47;2.27;;;;;;;;;;6266542;28;20194;-65
2023/08/06 10:04:11;;;;;;;3.00;2.60;;;;;;;;;;6255829;28;20206;-64
2023/08/06 10:07:12;;;;;;;2.30;2.10;;;;;;;;;;6261800;28;20197;-64
2023/08/06 10:10:13;;;;;;;2.60;2.07;;;;;;;;;;6251581;28;20202;-64
2023/08/06 10:13:15;;;;;;;3.03;2.60;;;;;;;;;;6258073;28;20194;-65
2023/08/06 10:16:17;;;;;;;2.80;2.50;;;;;;;;;;6273841;28;20220;-65
2023/08/06 10:19:18;;;;;;;4.57;2.20;;;;;;;;;;6246538;28;20248;-65
2023/08/06 10:22:19;;;;;;;2.63;2.20;;;;;;;;;;6252161;28;20234;-64
2023/08/06 10:25:20;;;;;;;2.33;2.00;;;;;;;;;;6236025;28;20214;-65
2023/08/06 10:28:22;;;;;;;2.37;1.97;;;;;;;;;;6253825;28;20265;-63
2023/08/06 10:31:49;;;;;;;2.20;2.00;;;;;;;;;;6248055;28;20190;-65
2023/08/06 10:35:06;;;;;;;1.83;1.73;;;;;;;;;;6258179;28;20191;-64
2023/08/06 10:38:11;;;;;;;2.27;1.87;;;;;;;;;;6258677;28;20194;-64
2023/08/06 10:41:28;;;;;;;1.30;1.23;;;;;;;;;;6248472;28;20195;-64
2023/08/06 10:44:29;;;;;;;2.70;1.43;;;;;;;;;;6264282;28;20285;-64
2023/08/06 10:47:30;;;;;;;1.73;1.23;;;;;;;;;;6250830;28;20224;-63
2023/08/06 10:50:31;;;;;;;1.90;1.60;;;;;;;;;;6255213;28;20198;-63
2023/08/06 10:53:32;;;;;;;1.57;1.47;;;;;;;;;;6259471;28;20201;-63
2023/08/06 10:56:40;;;;;;;1.50;1.40;;;;;;;;;;6243583;28;20194;-63
2023/08/06 10:59:41;;;;;;;1.13;1.10;;;;;;;;;;6276171;28;20206;-63
2023/08/06 11:02:42;;;;;;;2.57;1.30;;;;;;;;;;6259711;28;20307;-63
2023/08/06 11:05:49;;;;;;;1.30;1.20;;;;;;;;;;6249195;28;20248;-63
2023/08/06 11:08:52;;;;;;;0.87;0.87;;;;;;;;;;6268491;28;20182;-63
2023/08/06 11:11:53;;;;;;;0.90;0.90;;;;;;;;;;6256405;28;20213;-63
2023/08/06 11:14:55;;;;;;;0.90;0.80;;;;;;;;;;6252058;28;20234;-63
2023/08/06 11:17:56;;;;;;;1.00;0.90;;;;;;;;;;6264549;28;20210;-63
2023/08/06 11:20:59;;;;;;;1.00;0.90;;;;;;;;;;6257260;28;20252;-63
2023/08/06 11:24:01;;;;;;;0.70;0.70;;;;;;;;;;6254895;28;20218;-63
2023/08/06 11:27:03;;;;;;;1.03;0.90;;;;;;;;;;6244470;28;20215;-63
2023/08/06 11:30:04;;;;;;;0.80;0.80;;;;;;;;;;6243690;28;20195;-63
2023/08/06 11:33:09;;;;;;;1.60;1.17;;;;;;;;;;6242850;28;20232;-63
2023/08/06 11:36:10;;;;;;;1.10;1.00;;;;;;;;;;6249499;28;20198;-63
2023/08/06 11:39:11;;;;;;;1.00;1.00;;;;;;;;;;6253920;28;20194;-63
2023/08/06 11:42:13;;;;;;;2.63;0.90;;;;;;;;;;6247807;28;20191;-63
2023/08/06 11:45:14;;;;;;;1.00;0.77;;;;;;;;;;6254571;28;20304;-63
2023/08/06 11:48:15;;;;;;;1.23;1.13;;;;;;;;;;6248912;28;20197;-65
2023/08/06 11:51:16;;;;;;;1.00;1.00;;;;;;;;;;6244535;28;20214;-63
2023/08/06 11:54:17;;;;;;;1.00;0.90;;;;;;;;;;6248216;28;20198;-63
2023/08/06 11:57:18;;;;;;;1.23;1.10;;;;;;;;;;6252294;28;20220;-63
2023/08/06 12:00:21;;;;;;;1.47;1.00;;;;;;;;;;6253085;28;20290;-63
2023/08/06 12:03:27;;;;;;;0.83;0.83;;;;;;;;;;6254973;28;20257;-62
2023/08/06 12:06:28;;;;;;;1.17;1.00;;;;;;;;;;6249401;28;20198;-62
2023/08/06 12:09:29;;;;;;;1.70;0.80;;;;;;;;;;6252246;28;20186;-62
2023/08/06 12:12:30;;;;;;;1.10;1.00;;;;;;;;;;6253651;28;20190;-62
2023/08/06 12:15:31;;;;;;;0.70;0.70;;;;;;;;;;6264571;28;20193;-62
2023/08/06 12:18:32;;;;;;;1.60;0.70;;;;;;;;;;6250408;28;20440;-67
2023/08/06 12:21:34;;;;;;;0.90;0.90;;;;;;;;;;6249028;28;20243;-66
2023/08/06 12:24:35;;;;;;;0.60;0.53;;;;;;;;;;6245773;28;20216;-66
2023/08/06 12:27:36;;;;;;;0.80;0.80;;;;;;;;;;6257150;28;20193;-63
2023/08/06 12:30:37;;;;;;;0.53;0.53;;;;;;;;;;6250526;28;20186;-61
2023/08/06 12:33:38;;;;;;;0.80;0.80;;;;;;;;;;6246285;28;20201;-63
2023/08/06 12:36:39;;;;;;;0.50;0.50;;;;;;;;;;6266995;28;20187;-63
2023/08/06 12:39:40;;;;;;;1.10;0.90;;;;;;;;;;6256139;28;20197;-64
2023/08/06 12:42:41;;;;;;;0.87;0.60;;;;;;;;;;6256273;28;20190;-63
2023/08/06 12:45:42;;;;;;;0.87;0.60;;;;;;;;;;6259870;28;20213;-63
2023/08/06 12:48:43;;;;;;;0.60;0.60;;;;;;;;;;6260527;28;20187;-63
2023/08/06 12:51:45;;;;;;;0.70;0.47;;;;;;;;;;6258007;28;20240;-63
2023/08/06 12:54:46;;;;;;;1.73;0.77;;;;;;;;;;6254569;28;20194;-63
2023/08/06 12:57:47;;;;;;;0.40;0.40;;;;;;;;;;6265751;28;20190;-63
2023/08/06 13:00:48;;;;;;;0.77;0.60;;;;;;;;;;6257227;28;20201;-63
2023/08/06 13:03:49;;;;;;;0.60;0.60;;;;;;;;;;6256876;28;20261;-63
2023/08/06 13:06:51;;;;;;;2.10;0.80;;;;;;;;;;6254253;28;20225;-64
2023/08/06 13:09:52;;;;;;;0.77;0.57;;;;;;;;;;6250695;28;20271;-64
2023/08/06 13:12:53;;;;;;;0.43;0.43;;;;;;;;;;6252496;28;20190;-64
2023/08/06 13:15:55;;;;;;;0.40;0.40;;;;;;;;;;6266628;28;20185;-64
2023/08/06 13:18:56;;;;;;;0.43;0.43;;;;;;;;;;6269270;28;20251;-65
2023/08/06 13:22:02;;;;;;;0.40;0.40;;;;;;;;;;6260101;28;20316;-64
2023/08/06 13:25:04;;;;;;;0.57;0.50;;;;;;;;;;6275596;28;20301;-64
2023/08/06 13:28:05;;;;;;;0.40;0.40;;;;;;;;;;6262539;28;20277;-64
2023/08/06 13:31:06;;;;;;;0.93;0.40;;;;;;;;;;6256554;28;20275;-64
2023/08/06 13:34:08;;;;;;;3.13;0.50;;;;;;;;;;6249083;28;20198;-64
2023/08/06 13:37:10;;;;;;;0.73;0.50;;;;;;;;;;6257498;28;20203;-64
2023/08/06 13:40:11;;;;;;;0.50;0.40;;;;;;;;;;6249463;28;20273;-64
2023/08/06 13:43:13;;;;;;;0.50;0.50;;;;;;;;;;6256637;28;20198;-64
2023/08/06 13:46:16;;;;;;;1.10;0.40;;;;;;;;;;6260712;28;20218;-64
2023/08/06 13:49:18;;;;;;;0.70;0.47;;;;;;;;;;6254005;28;20187;-64
2023/08/06 13:52:19;;;;;;;2.40;0.60;;;;;;;;;;6245947;28;20190;-64
2023/08/06 13:55:21;;;;;;;0.97;0.40;;;;;;;;;;6238292;28;20266;-64
2023/08/06 13:58:22;;;;;;;0.30;0.30;;;;;;;;;;6251788;28;20195;-64
2023/08/06 14:01:23;;;;;;;0.30;0.30;;;;;;;;;;6262991;28;20209;-64
2023/08/06 14:04:25;;;;;;;0.67;0.40;;;;;;;;;;6249091;28;20261;-64
2023/08/06 14:07:26;;;;;;;1.10;0.50;;;;;;;;;;6250236;28;20190;-64
2023/08/06 14:10:28;;;;;;;0.57;0.50;;;;;;;;;;6252928;28;20289;-64
2023/08/06 14:13:29;;;;;;;0.53;0.53;;;;;;;;;;6258211;28;20189;-64
2023/08/06 14:16:30;;;;;;;1.17;0.60;;;;;;;;;;6249922;28;20194;-63
2023/08/06 14:19:31;;;;;;;0.40;0.40;;;;;;;;;;6253033;28;20190;-63
2023/08/06 14:22:33;;;;;;;0.50;0.40;;;;;;;;;;6249699;28;20233;-63
2023/08/06 14:25:34;;;;;;;0.50;0.50;;;;;;;;;;6242210;28;20206;-63
2023/08/06 14:28:35;;;;;;;1.10;0.70;;;;;;;;;;6255299;28;20190;-63
2023/08/06 14:31:36;;;;;;;0.37;0.37;;;;;;;;;;6256861;28;20186;-63
2023/08/06 14:34:38;;;;;;;0.73;0.40;;;;;;;;;;6252195;28;20198;-63
2023/08/06 14:37:40;;;;;;;1.23;0.40;;;;;;;;;;6255002;28;20258;-64
2023/08/06 14:40:43;;;;;;;0.30;0.30;;;;;;;;;;6256192;28;20225;-67
2023/08/06 14:43:45;;;;;;;0.27;0.27;;;;;;;;;;6253403;28;20282;-64
2023/08/06 14:46:46;;;;;;;0.30;0.30;;;;;;;;;;6263753;28;20194;-65
2023/08/06 14:49:49;;;;;;;0.60;0.40;;;;;;;;;;6252888;28;20277;-64
2023/08/06 14:52:50;;;;;;;0.67;0.37;;;;;;;;;;6271759;28;20257;-64
2023/08/06 14:55:51;;;;;;;1.57;0.40;;;;;;;;;;6249616;28;20194;-65
2023/08/06 14:58:52;;;;;;;0.40;0.30;;;;;;;;;;6278403;28;20205;-64
2023/08/06 15:01:54;;;;;;;0.40;0.40;;;;;;;;;;6251579;28;20194;-64
2023/08/06 15:04:55;;;;;;;0.10;0.10;;;;;;;;;;6249360;28;20214;-65
2023/08/06 15:07:56;;;;;;;1.13;0.30;;;;;;;;;;6246504;28;20193;-65
2023/08/06 15:10:58;;;;;;;0.97;0.40;;;;;;;;;;6255630;28;20189;-64
2023/08/06 15:14:00;;;;;;;0.10;0.10;;;;;;;;;;6244137;28;20269;-63
2023/08/06 15:17:03;;;;;;;0.10;0.10;;;;;;;;;;6257915;28;20196;-63
2023/08/06 15:20:04;;;;;;;0.43;0.13;;;;;;;;;;6256014;28;20194;-64
2023/08/06 15:23:06;;;;;;;0.17;0.13;;;;;;;;;;6249250;28;20260;-64
2023/08/06 15:26:07;;;;;;;0.30;0.30;;;;;;;;;;6254129;28;20256;-64
2023/08/06 15:29:09;;;;;;;0.10;0.10;;;;;;;;;;6253894;28;20193;-65
2023/08/06 15:32:13;;;;;;;0.20;0.20;;;;;;;;;;6253312;28;20191;-64
2023/08/06 15:35:14;;;;;;;0.67;0.20;;;;;;;;;;6257921;28;20190;-65
2023/08/06 15:38:16;;;;;;;0.20;0.20;;;;;;;;;;6244280;28;20198;-65
2023/08/06 15:41:17;;;;;;;3.73;0.60;;;;;;;;;;6256636;28;20220;-66
2023/08/06 15:44:18;;;;;;;0.10;0.10;;;;;;;;;;6239325;28;20765;-64
2023/08/06 15:47:19;;;;;;;1.20;0.20;;;;;;;;;;6254501;28;20761;-64
2023/08/06 15:50:21;;;;;;;1.20;0.10;;;;;;;;;;6255236;28;20185;-66
2023/08/06 15:53:22;;;;;;;0.20;0.20;;;;;;;;;;6242089;28;20213;-67
2023/08/06 15:56:23;;;;;;;0.67;0.30;;;;;;;;;;6258319;28;20216;-67
2023/08/06 15:59:25;;;;;;;0.87;0.20;;;;;;;;;;6243799;28;20224;-67
2023/08/06 16:02:27;;;;;;;2.37;0.40;;;;;;;;;;6271138;28;20258;-68
2023/08/06 16:05:28;;;;;;;0.67;0.30;;;;;;;;;;6248281;28;20233;-64
2023/08/06 16:08:29;;;;;;;0.30;0.20;;;;;;;;;;6248384;28;20190;-64
2023/08/06 16:11:31;;;;;;;1.07;0.20;;;;;;;;;;6271472;28;20189;-63
2023/08/06 16:14:32;;;;;;;0.20;0.20;;;;;;;;;;6259738;28;20201;-64
2023/08/06 16:17:33;;;;;;;1.53;0.37;;;;;;;;;;6264413;28;20617;-64
2023/08/06 16:20:41;;;;;;;0.40;0.30;;;;;;;;;;6257806;28;20208;-64
2023/08/06 16:23:43;;;;;;;1.50;0.30;;;;;;;;;;6259469;28;20209;-64
2023/08/06 16:26:44;;;;;;;1.30;0.23;;;;;;;;;;6248220;28;20194;-64
2023/08/06 16:29:47;;;;;;;0.47;0.47;;;;;;;;;;6261442;28;20317;-65
2023/08/06 16:32:49;;;;;;;0.33;0.33;;;;;;;;;;6261668;28;20190;-65
2023/08/06 16:35:50;;;;;;;0.73;0.30;;;;;;;;;;6267175;28;20211;-66
2023/08/06 16:38:52;;;;;;;0.30;0.30;;;;;;;;;;6269283;28;20193;-66
2023/08/06 16:41:57;;;;;;;0.20;0.20;;;;;;;;;;6261375;28;20186;-67
2023/08/06 16:44:59;;;;;;;0.67;0.40;;;;;;;;;;6252028;28;20219;-66
2023/08/06 16:48:00;;;;;;;0.53;0.20;;;;;;;;;;6262178;28;20205;-64
2023/08/06 16:51:01;;;;;;;0.30;0.30;;;;;;;;;;6250847;28;20185;-66
2023/08/06 16:54:03;;;;;;;2.40;0.30;;;;;;;;;;6251285;28;20742;-65
2023/08/06 16:57:04;;;;;;;2.73;0.40;;;;;;;;;;6257122;28;20187;-65
2023/08/06 17:00:06;;;;;;;1.77;0.30;;;;;;;;;;6280335;28;20194;-65
2023/08/06 17:03:07;;;;;;;1.77;0.30;;;;;;;;;;6254987;28;20225;-66
2023/08/06 17:06:14;;;;;;;0.60;0.20;;;;;;;;;;6254870;28;20238;-65
2023/08/06 17:09:15;;;;;;;1.83;0.30;;;;;;;;;;6264257;28;20182;-65
2023/08/06 17:12:19;;;;;;;0.50;0.30;;;;;;;;;;6256502;28;20186;-65
2023/08/06 17:15:21;;;;;;;0.30;0.30;;;;;;;;;;6267256;28;20190;-65
2023/08/06 17:18:23;;;;;;;0.33;0.30;;;;;;;;;;6266157;28;20201;-65
2023/08/06 17:21:24;;;;;;;1.03;0.50;;;;;;;;;;6263961;28;20234;-65
2023/08/06 17:24:25;;;;;;;0.30;0.30;;;;;;;;;;6273544;28;20217;-64
2023/08/06 17:27:27;;;;;;;0.83;0.50;;;;;;;;;;6268886;28;20189;-63
2023/08/06 17:30:28;;;;;;;0.73;0.40;;;;;;;;;;6258733;28;20221;-64
2023/08/06 17:33:29;;;;;;;1.10;0.50;;;;;;;;;;6254072;28;20203;-65
2023/08/06 17:36:30;;;;;;;2.90;0.95;;;;;;;;;;6251819;28;20750;-65
2023/08/06 17:39:32;;;;;;;3.47;0.90;;;;;;;;;;6263617;28;20272;-66
2023/08/06 17:42:33;;;;;;;0.80;0.50;;;;;;;;;;6261945;28;20197;-65
2023/08/06 17:45:36;;;;;;;2.73;0.60;;;;;;;;;;6255041;28;20301;-66
2023/08/06 17:48:37;;;;;;;1.23;0.50;;;;;;;;;;6276300;28;20186;-62
2023/08/06 17:51:39;;;;;;;1.40;0.50;;;;;;;;;;6252620;28;20187;-63
2023/08/06 17:54:40;;;;;;;1.30;0.50;;;;;;;;;;6260453;28;20197;-63
2023/08/06 17:57:41;;;;;;;0.83;0.50;;;;;;;;;;6241027;28;20240;-67
2023/08/06 18:00:48;;;;;;;2.97;0.60;;;;;;;;;;6249399;28;20186;-66
2023/08/06 18:03:49;;;;;;;5.97;0.70;;;;;;;;;;6245320;28;20201;-66
2023/08/06 18:06:51;;;;;;;1.13;0.90;;;;;;;;;;6255638;28;20201;-66
2023/08/06 18:09:52;;;;;;;4.53;0.80;;;;;;;;;;6252972;28;20221;-65